createdAt,value
2024-01-07T00:01:56.465Z,100.00
2024-01-07T00:06:58.816Z,99.98
2024-01-07T00:12:33.295Z,100.00
2024-01-07T00:17:35.300Z,99.82
2024-01-07T00:22:37.461Z,100.00
2024-01-07T00:27:39.751Z,99.96
2024-01-07T00:32:51.763Z,100.00
2024-01-07T00:37:59.786Z,99.97
2024-01-07T00:43:20.002Z,99.80
2024-01-07T00:48:22.497Z,99.99
2024-01-07T00:53:24.668Z,99.85
2024-01-07T00:58:26.718Z,99.71
2024-01-07T01:03:37.483Z,99.45
2024-01-07T01:09:00.393Z,99.80
2024-01-07T01:14:02.742Z,99.56
2024-01-07T01:19:25.193Z,99.85
2024-01-07T01:24:57.666Z,99.63
2024-01-07T01:29:59.837Z,99.31
2024-01-07T01:35:05.746Z,98.81
2024-01-07T01:40:17.474Z,99.12
2024-01-07T01:45:19.888Z,98.56
2024-01-07T01:50:23.048Z,98.87
2024-01-07T01:55:25.260Z,99.27
2024-01-07T02:00:27.901Z,99.27
2024-01-07T02:05:30.027Z,98.50
2024-01-07T02:10:35.027Z,98.43
2024-01-07T02:15:37.197Z,98.46
2024-01-07T02:20:39.293Z,98.16
2024-01-07T02:25:52.639Z,98.38
2024-01-07T02:30:57.130Z,98.21
2024-01-07T02:35:59.223Z,97.79
2024-01-07T02:41:08.532Z,97.97
2024-01-07T02:46:10.544Z,98.06
2024-01-07T02:51:12.582Z,98.22
2024-01-07T02:56:14.825Z,98.19
2024-01-07T03:01:22.191Z,98.01
2024-01-07T03:06:28.368Z,98.19
2024-01-07T03:11:30.603Z,98.48
2024-01-07T03:16:32.775Z,98.17
2024-01-07T03:21:37.601Z,98.06
2024-01-07T03:26:39.750Z,97.74
2024-01-07T03:31:41.725Z,97.91
2024-01-07T03:36:43.943Z,97.68
2024-01-07T03:41:45.972Z,97.40
2024-01-07T03:46:47.857Z,97.34
2024-01-07T03:51:49.867Z,97.06
2024-01-07T03:57:03.869Z,96.53
2024-01-07T04:02:08.585Z,96.95
2024-01-07T04:07:10.845Z,97.03
2024-01-07T04:12:13.214Z,96.70
2024-01-07T04:17:15.166Z,97.23
2024-01-07T04:22:17.073Z,96.79
2024-01-07T04:27:19.229Z,96.51
2024-01-07T04:32:21.185Z,96.62
2024-01-07T04:37:23.096Z,96.13
2024-01-07T04:42:25.129Z,96.00
2024-01-07T04:47:29.355Z,96.46
2024-01-07T04:52:31.302Z,96.23
2024-01-07T04:57:33.168Z,95.87
2024-01-07T05:02:35.220Z,96.27
2024-01-07T05:07:38.298Z,96.38
2024-01-07T05:12:40.263Z,95.63
2024-01-07T05:17:42.266Z,95.28
2024-01-07T05:22:44.323Z,94.99
2024-01-07T05:27:46.206Z,94.84
2024-01-07T05:32:48.258Z,95.51
2024-01-07T05:37:50.215Z,95.24
2024-01-07T05:42:52.192Z,95.42
2024-01-07T05:47:54.113Z,95.35
2024-01-07T05:52:56.321Z,95.24
2024-01-07T05:57:58.884Z,95.80
2024-01-07T06:03:01.315Z,94.90
2024-01-07T06:08:04.463Z,94.77
2024-01-07T06:13:06.722Z,94.63
2024-01-07T06:18:08.759Z,94.68
2024-01-07T06:23:10.680Z,94.74
2024-01-07T06:28:12.710Z,94.97
2024-01-07T06:33:15.670Z,95.38
2024-01-07T06:38:17.823Z,94.63
2024-01-07T06:43:19.832Z,94.23
2024-01-07T06:48:22.004Z,93.98
2024-01-07T06:53:24.161Z,93.92
2024-01-07T06:58:26.236Z,92.98
2024-01-07T07:03:28.344Z,92.75
2024-01-07T07:08:30.536Z,93.47
2024-01-07T07:13:32.541Z,93.48
2024-01-07T07:18:34.765Z,93.28
2024-01-07T07:23:36.851Z,93.36
2024-01-07T07:28:38.776Z,93.56
2024-01-07T07:33:41.262Z,93.25
2024-01-07T07:38:43.437Z,93.02
2024-01-07T07:43:48.007Z,92.97
2024-01-07T07:48:50.214Z,92.90
2024-01-07T07:53:52.655Z,93.20
2024-01-07T07:58:54.790Z,93.35
2024-01-07T08:03:57.094Z,93.27
2024-01-07T08:08:59.494Z,92.57
2024-01-07T08:14:06.569Z,93.07
2024-01-07T08:19:08.718Z,93.60
2024-01-07T08:24:11.849Z,93.57
2024-01-07T08:29:13.937Z,93.02
2024-01-07T08:34:22.004Z,92.07
2024-01-07T08:39:26.350Z,92.74
2024-01-07T08:44:28.609Z,92.46
2024-01-07T08:49:33.837Z,92.28
2024-01-07T08:54:36.311Z,92.50
2024-01-07T08:59:38.461Z,91.92
2024-01-07T09:04:40.598Z,91.05
2024-01-07T09:09:42.822Z,91.95
2024-01-07T09:14:44.832Z,91.23
2024-01-07T09:19:47.012Z,91.53
2024-01-07T09:24:50.585Z,92.01
2024-01-07T09:29:53.925Z,91.80
2024-01-07T09:34:56.444Z,91.38
2024-01-07T09:39:59.059Z,91.78
2024-01-07T09:45:06.809Z,92.33
2024-01-07T09:50:10.337Z,91.85
2024-01-07T09:55:27.785Z,92.55
2024-01-07T10:00:30.293Z,92.05
2024-01-07T10:05:32.905Z,91.87
2024-01-07T10:10:48.189Z,91.48
2024-01-07T10:15:50.355Z,91.42
2024-01-07T10:20:55.898Z,90.99
2024-01-07T10:26:03.320Z,92.04
2024-01-07T10:31:08.041Z,91.78
2024-01-07T10:36:10.520Z,91.44
2024-01-07T10:41:13.040Z,90.66
2024-01-07T10:46:16.458Z,90.29
2024-01-07T10:51:21.000Z,90.88
2024-01-07T10:56:24.972Z,90.91
2024-01-07T11:01:27.385Z,91.49
2024-01-07T11:06:44.227Z,91.12
2024-01-07T11:12:08.555Z,91.89
2024-01-07T11:17:30.734Z,91.58
2024-01-07T11:22:41.998Z,91.94
2024-01-07T11:27:44.114Z,92.17
2024-01-07T11:32:52.338Z,91.72
2024-01-07T11:37:55.140Z,92.01
2024-01-07T11:42:57.387Z,91.20
2024-01-07T11:47:59.532Z,90.98
2024-01-07T11:53:01.974Z,91.56
2024-01-07T11:58:04.806Z,91.62
2024-01-07T12:03:10.373Z,91.40
2024-01-07T12:08:13.069Z,90.97
2024-01-07T12:13:16.872Z,89.91
2024-01-07T12:18:20.924Z,90.10
2024-01-07T12:23:23.313Z,90.45
2024-01-07T12:28:31.573Z,90.38
2024-01-07T12:33:34.328Z,90.38
2024-01-07T12:38:39.991Z,91.08
2024-01-07T12:43:42.017Z,90.78
2024-01-07T12:48:44.156Z,90.21
2024-01-07T12:53:51.527Z,90.13
2024-01-07T12:58:53.441Z,89.86
2024-01-07T13:03:55.869Z,89.64
2024-01-07T13:08:58.135Z,89.07
2024-01-07T13:14:02.237Z,89.43
2024-01-07T13:19:04.963Z,89.50
2024-01-07T13:24:07.333Z,88.97
2024-01-07T13:29:09.365Z,88.49
2024-01-07T13:34:14.997Z,89.17
2024-01-07T13:39:18.088Z,88.97
2024-01-07T13:44:20.617Z,89.07
2024-01-07T13:49:23.205Z,89.26
2024-01-07T13:54:25.254Z,89.41
2024-01-07T13:59:27.503Z,89.65
2024-01-07T14:04:29.675Z,89.33
2024-01-07T14:09:32.090Z,89.03
2024-01-07T14:14:34.374Z,88.95
2024-01-07T14:19:36.504Z,89.16
2024-01-07T14:24:38.531Z,88.73
2024-01-07T14:29:40.556Z,88.47
2024-01-07T14:34:43.054Z,89.20
2024-01-07T14:39:46.123Z,88.60
2024-01-07T14:44:51.296Z,88.83
2024-01-07T14:49:53.717Z,89.11
2024-01-07T14:54:57.068Z,88.47
2024-01-07T14:59:58.913Z,88.90
2024-01-07T15:05:01.227Z,89.10
2024-01-07T15:10:03.733Z,88.99
2024-01-07T15:15:07.365Z,89.06
2024-01-07T15:20:09.864Z,89.28
2024-01-07T15:25:12.090Z,89.06
2024-01-07T15:30:22.450Z,89.49
2024-01-07T15:35:49.302Z,89.08
2024-01-07T15:40:51.610Z,88.87
2024-01-07T15:45:57.172Z,89.36
2024-01-07T15:50:59.602Z,89.28
2024-01-07T15:56:04.331Z,89.40
2024-01-07T16:01:07.661Z,89.57
2024-01-07T16:06:10.135Z,89.00
2024-01-07T16:11:17.097Z,89.22
2024-01-07T16:16:21.915Z,89.25
2024-01-07T16:21:24.026Z,89.63
2024-01-07T16:26:25.947Z,88.82
2024-01-07T16:31:28.195Z,89.14
2024-01-07T16:36:30.441Z,89.30
2024-01-07T16:41:32.905Z,88.42
2024-01-07T16:46:36.799Z,88.48
2024-01-07T16:51:39.216Z,88.63
2024-01-07T16:56:42.262Z,88.64
2024-01-07T17:01:45.166Z,89.16
2024-01-07T17:06:49.453Z,88.97
2024-01-07T17:11:51.546Z,88.95
2024-01-07T17:16:55.459Z,88.71
2024-01-07T17:21:57.533Z,87.70
2024-01-07T17:27:00.032Z,88.52
2024-01-07T17:32:02.117Z,88.27
2024-01-07T17:37:04.656Z,88.25
2024-01-07T17:42:08.524Z,88.42
2024-01-07T17:47:10.763Z,88.14
2024-01-07T17:52:13.656Z,88.01
2024-01-07T17:57:16.052Z,87.82
2024-01-07T18:02:18.264Z,88.25
2024-01-07T18:07:20.434Z,88.45
2024-01-07T18:12:24.242Z,88.28
2024-01-07T18:17:26.433Z,88.19
2024-01-07T18:22:29.030Z,88.12
2024-01-07T18:27:31.322Z,88.28
2024-01-07T18:32:35.169Z,88.38
2024-01-07T18:37:37.765Z,88.29
2024-01-07T18:42:40.021Z,89.17
2024-01-07T18:47:44.050Z,88.79
2024-01-07T18:52:46.951Z,89.13
2024-01-07T18:57:49.769Z,89.23
2024-01-07T19:02:51.986Z,88.73
2024-01-07T19:07:54.253Z,88.86
2024-01-07T19:12:56.424Z,88.93
2024-01-07T19:17:58.544Z,88.47
2024-01-07T19:23:04.672Z,88.38
2024-01-07T19:28:06.756Z,88.72
2024-01-07T19:33:09.249Z,88.51
2024-01-07T19:38:12.377Z,88.42
2024-01-07T19:43:16.039Z,88.98
2024-01-07T19:48:18.030Z,88.80
2024-01-07T19:53:29.849Z,88.56
2024-01-07T19:58:33.231Z,88.46
2024-01-07T20:03:41.848Z,88.66
2024-01-07T20:08:49.694Z,88.49
2024-01-07T20:13:52.506Z,88.52
2024-01-07T20:18:54.754Z,88.53
2024-01-07T20:24:01.680Z,89.15
2024-01-07T20:29:08.139Z,88.67
2024-01-07T20:34:11.215Z,87.89
2024-01-07T20:39:13.253Z,87.98
2024-01-07T20:44:15.218Z,87.79
2024-01-07T20:49:17.979Z,87.47
2024-01-07T20:54:20.046Z,87.72
2024-01-07T20:59:22.180Z,87.66
2024-01-07T21:04:24.508Z,87.59
2024-01-07T21:09:26.604Z,87.63
2024-01-07T21:14:28.794Z,87.90
2024-01-07T21:19:30.947Z,87.34
2024-01-07T21:24:34.444Z,87.08
2024-01-07T21:29:36.295Z,87.16
2024-01-07T21:34:38.812Z,87.36
2024-01-07T21:39:42.339Z,87.20
2024-01-07T21:44:45.739Z,87.36
2024-01-07T21:49:49.239Z,87.50
2024-01-07T21:54:51.060Z,87.43
2024-01-07T21:59:53.213Z,87.06
2024-01-07T22:04:55.290Z,87.17
2024-01-07T22:09:58.882Z,87.16
2024-01-07T22:15:00.665Z,87.51
2024-01-07T22:20:02.855Z,87.53
2024-01-07T22:25:05.446Z,87.26
2024-01-07T22:30:07.996Z,87.42
2024-01-07T22:35:11.408Z,87.24
2024-01-07T22:40:13.248Z,87.30
2024-01-07T22:45:15.087Z,87.34
2024-01-07T22:50:17.163Z,87.23
2024-01-07T22:55:19.076Z,86.90
2024-01-07T23:00:24.673Z,87.01
2024-01-07T23:05:26.959Z,87.03
2024-01-07T23:10:29.160Z,86.72
2024-01-07T23:15:31.041Z,86.96
2024-01-07T23:20:35.173Z,86.45
2024-01-07T23:25:37.477Z,86.43
2024-01-07T23:30:39.862Z,86.57
2024-01-07T23:35:50.528Z,86.44
2024-01-07T23:41:00.059Z,86.35
2024-01-07T23:46:02.078Z,86.45
2024-01-07T23:51:04.320Z,86.60
2024-01-07T23:56:06.462Z,86.65
